createdAt,value
2019-01-27T00:02:06.257Z,1.43
2019-01-27T00:04:38.195Z,1.40
2019-01-27T00:07:09.362Z,1.39
2019-01-27T00:09:55.570Z,1.33
2019-01-27T00:12:31.734Z,1.39
2019-01-27T00:15:04.874Z,1.37
2019-01-27T00:17:36.963Z,1.34
2019-01-27T00:20:09.862Z,1.39
2019-01-27T00:22:40.719Z,1.38
2019-01-27T00:25:11.535Z,1.33
2019-01-27T00:27:43.203Z,1.37
2019-01-27T00:30:21.359Z,1.33
2019-01-27T00:32:52.363Z,1.35
2019-01-27T00:35:24.727Z,1.35
2019-01-27T00:37:55.877Z,1.38
2019-01-27T00:40:26.725Z,1.39
2019-01-27T00:42:57.624Z,1.39
2019-01-27T00:45:31.858Z,1.41
2019-01-27T00:48:04.515Z,1.39
2019-01-27T00:50:36.220Z,1.42
2019-01-27T00:53:08.629Z,1.40
2019-01-27T00:55:39.854Z,1.38
2019-01-27T00:58:13.164Z,1.38
2019-01-27T01:00:47.078Z,1.40
2019-01-27T01:03:18.408Z,1.38
2019-01-27T01:05:50.265Z,1.37
2019-01-27T01:08:21.930Z,1.35
2019-01-27T01:10:52.761Z,1.38
2019-01-27T01:13:23.623Z,1.43
2019-01-27T01:15:54.711Z,1.39
2019-01-27T01:18:28.618Z,1.43
2019-01-27T01:21:00.962Z,1.52
2019-01-27T01:23:32.473Z,1.51
2019-01-27T01:26:08.085Z,1.49
2019-01-27T01:28:39.250Z,1.51
2019-01-27T01:31:11.803Z,1.51
2019-01-27T01:33:43.893Z,1.53
2019-01-27T01:36:15.576Z,1.53
2019-01-27T01:38:46.862Z,1.53
2019-01-27T01:41:20.169Z,1.53
2019-01-27T01:43:51.249Z,1.53
2019-01-27T01:46:24.031Z,1.48
2019-01-27T01:48:55.005Z,1.51
2019-01-27T01:51:26.190Z,1.50
2019-01-27T01:53:58.664Z,1.49
2019-01-27T01:56:29.583Z,1.52
2019-01-27T01:59:01.419Z,1.48
2019-01-27T02:01:32.968Z,1.47
2019-01-27T02:04:07.455Z,1.48
2019-01-27T02:06:38.462Z,1.53
2019-01-27T02:09:11.548Z,1.54
2019-01-27T02:11:42.725Z,1.55
2019-01-27T02:14:16.487Z,1.52
2019-01-27T02:16:47.651Z,1.53
2019-01-27T02:19:18.650Z,1.54
2019-01-27T02:21:49.945Z,1.54
2019-01-27T02:24:21.555Z,1.53
2019-01-27T02:26:53.047Z,1.54
2019-01-27T02:29:23.897Z,1.57
2019-01-27T02:31:55.736Z,1.57
2019-01-27T02:34:26.556Z,1.54
2019-01-27T02:36:57.399Z,1.55
2019-01-27T02:39:28.193Z,1.57
2019-01-27T02:41:59.508Z,1.59
2019-01-27T02:44:30.842Z,1.56
2019-01-27T02:47:06.250Z,1.59
2019-01-27T02:49:39.212Z,1.60
2019-01-27T02:52:12.059Z,1.62
2019-01-27T02:54:43.452Z,1.59
2019-01-27T02:57:16.368Z,1.58
2019-01-27T02:59:50.533Z,1.60
2019-01-27T03:02:21.758Z,1.59
2019-01-27T03:04:54.546Z,1.60
2019-01-27T03:07:36.810Z,1.58
2019-01-27T03:10:56.540Z,1.60
2019-01-27T03:13:27.334Z,1.62
2019-01-27T03:16:02.381Z,1.64
2019-01-27T03:18:33.568Z,1.65
2019-01-27T03:21:10.104Z,1.63
2019-01-27T03:23:40.891Z,1.63
2019-01-27T03:26:12.725Z,1.62
2019-01-27T03:28:43.882Z,1.64
2019-01-27T03:31:14.888Z,1.62
2019-01-27T03:33:47.746Z,1.67
2019-01-27T03:36:18.915Z,1.69
2019-01-27T03:38:49.901Z,1.75
2019-01-27T03:41:21.367Z,1.73
2019-01-27T03:43:52.274Z,1.72
2019-01-27T03:46:23.102Z,1.68
2019-01-27T03:48:59.855Z,1.69
2019-01-27T03:51:37.585Z,1.68
2019-01-27T03:54:09.011Z,1.75
2019-01-27T03:56:39.884Z,1.78
2019-01-27T03:59:14.275Z,1.71
2019-01-27T04:01:45.123Z,1.72
2019-01-27T04:04:21.512Z,1.68
2019-01-27T04:07:24.387Z,1.74
2019-01-27T04:09:57.455Z,1.74
2019-01-27T04:12:32.850Z,1.80
2019-01-27T04:15:03.940Z,1.77
2019-01-27T04:17:37.512Z,1.76
2019-01-27T04:20:11.750Z,1.75
2019-01-27T04:22:42.629Z,1.76
2019-01-27T04:25:14.399Z,1.78
2019-01-27T04:27:46.809Z,1.74
2019-01-27T04:30:27.353Z,1.71
2019-01-27T04:32:59.170Z,1.74
2019-01-27T04:35:30.437Z,1.72
2019-01-27T04:38:02.203Z,1.76
2019-01-27T04:40:33.505Z,1.75
2019-01-27T04:43:06.517Z,1.70
2019-01-27T04:45:38.639Z,1.66
2019-01-27T04:48:09.904Z,1.66
2019-01-27T04:50:40.648Z,1.67
2019-01-27T04:53:11.460Z,1.67
2019-01-27T04:55:42.489Z,1.64
2019-01-27T04:58:14.870Z,1.64
2019-01-27T05:00:47.873Z,1.71
2019-01-27T05:03:33.192Z,1.70
2019-01-27T05:06:08.887Z,1.70
2019-01-27T05:08:39.735Z,1.70
2019-01-27T05:11:14.831Z,1.70
2019-01-27T05:13:45.921Z,1.73
2019-01-27T05:16:16.924Z,1.72
2019-01-27T05:18:50.433Z,1.72
2019-01-27T05:21:22.574Z,1.71
2019-01-27T05:23:53.407Z,1.72
2019-01-27T05:26:24.285Z,1.73
2019-01-27T05:28:57.309Z,1.68
2019-01-27T05:31:28.145Z,1.66
2019-01-27T05:34:01.436Z,1.67
2019-01-27T05:36:32.373Z,1.68
2019-01-27T05:39:05.667Z,1.67
2019-01-27T05:41:37.306Z,1.66
2019-01-27T05:44:08.141Z,1.69
2019-01-27T05:46:39.039Z,1.68
2019-01-27T05:49:09.788Z,1.68
2019-01-27T05:51:41.910Z,1.67
2019-01-27T05:54:14.332Z,1.62
2019-01-27T05:56:45.422Z,1.61
2019-01-27T05:59:16.255Z,1.60
2019-01-27T06:01:47.025Z,1.66
2019-01-27T06:04:24.372Z,1.62
2019-01-27T06:06:55.197Z,1.61
2019-01-27T06:09:25.991Z,1.62
2019-01-27T06:11:58.095Z,1.63
2019-01-27T06:14:28.919Z,1.60
2019-01-27T06:16:59.766Z,1.59
2019-01-27T06:19:31.519Z,1.59
2019-01-27T06:22:03.942Z,1.55
2019-01-27T06:24:36.485Z,1.54
2019-01-27T06:27:07.312Z,1.51
2019-01-27T06:29:38.053Z,1.52
2019-01-27T06:32:10.793Z,1.53
2019-01-27T06:34:41.572Z,1.54
2019-01-27T06:37:13.112Z,1.57
2019-01-27T06:39:43.927Z,1.59
2019-01-27T06:42:14.822Z,1.58
2019-01-27T06:44:46.373Z,1.58
2019-01-27T06:47:18.042Z,1.62
2019-01-27T06:49:48.964Z,1.63
2019-01-27T06:52:19.686Z,1.67
2019-01-27T06:54:50.724Z,1.70
2019-01-27T06:57:21.659Z,1.69
2019-01-27T06:59:59.893Z,1.74
2019-01-27T07:02:45.432Z,1.72
2019-01-27T07:05:22.181Z,1.75
2019-01-27T07:08:04.068Z,1.76
2019-01-27T07:10:46.498Z,1.76
2019-01-27T07:13:29.325Z,1.73
2019-01-27T07:16:27.139Z,1.77
2019-01-27T07:19:20.299Z,1.76
2019-01-27T07:22:11.870Z,1.74
2019-01-27T07:24:50.492Z,1.75
2019-01-27T07:27:38.524Z,1.76
2019-01-27T07:30:30.394Z,1.75
2019-01-27T07:33:26.418Z,1.78
2019-01-27T07:36:16.473Z,1.79
2019-01-27T07:39:15.376Z,1.81
2019-01-27T07:42:16.984Z,1.83
2019-01-27T07:45:09.598Z,1.86
2019-01-27T07:47:54.425Z,1.96
2019-01-27T07:51:01.227Z,1.95
2019-01-27T07:53:51.423Z,1.95
2019-01-27T07:56:44.174Z,2.01
2019-01-27T07:59:24.303Z,2.05
2019-01-27T08:02:25.192Z,2.12
2019-01-27T08:05:31.049Z,2.17
2019-01-27T08:08:23.532Z,2.19
2019-01-27T08:11:10.359Z,2.18
2019-01-27T08:13:58.450Z,2.19
2019-01-27T08:17:03.630Z,2.22
2019-01-27T08:19:51.428Z,2.27
2019-01-27T08:22:55.608Z,2.26
2019-01-27T08:25:36.007Z,2.26
2019-01-27T08:28:34.503Z,2.27
2019-01-27T08:31:32.643Z,2.22
2019-01-27T08:34:25.794Z,2.22
2019-01-27T08:37:25.561Z,2.21
2019-01-27T08:40:19.519Z,2.20
2019-01-27T08:43:01.600Z,2.18
2019-01-27T08:45:48.866Z,2.20
2019-01-27T08:48:24.050Z,2.23
2019-01-27T08:50:54.852Z,2.25
2019-01-27T08:53:28.876Z,2.19
2019-01-27T08:56:00.059Z,2.26
2019-01-27T08:58:31.018Z,2.35
2019-01-27T09:01:10.588Z,2.47
2019-01-27T09:03:52.800Z,2.53
2019-01-27T09:06:43.401Z,2.51
2019-01-27T09:09:26.960Z,2.50
2019-01-27T09:12:15.175Z,2.55
2019-01-27T09:15:06.967Z,2.56
2019-01-27T09:17:58.141Z,2.55
2019-01-27T09:20:47.614Z,2.53
2019-01-27T09:23:26.554Z,2.47
2019-01-27T09:26:16.415Z,2.46
2019-01-27T09:28:59.154Z,2.44
2019-01-27T09:31:39.464Z,2.45
2019-01-27T09:34:24.771Z,2.49
2019-01-27T09:37:23.531Z,2.49
2019-01-27T09:40:14.790Z,2.50
2019-01-27T09:43:03.738Z,2.55
2019-01-27T09:46:05.134Z,2.55
2019-01-27T09:48:47.929Z,2.58
2019-01-27T09:51:36.354Z,2.56
2019-01-27T09:54:29.930Z,2.59
2019-01-27T09:57:20.244Z,2.62
2019-01-27T10:00:17.558Z,2.70
2019-01-27T10:03:19.553Z,2.73
2019-01-27T10:05:59.497Z,2.71
2019-01-27T10:08:46.312Z,2.67
2019-01-27T10:11:35.039Z,2.63
2019-01-27T10:14:21.415Z,2.67
2019-01-27T10:17:25.765Z,2.73
2019-01-27T10:20:27.500Z,2.75
2019-01-27T10:23:23.163Z,2.74
2019-01-27T10:26:22.363Z,2.79
2019-01-27T10:29:17.341Z,2.85
2019-01-27T10:32:10.685Z,2.82
2019-01-27T10:34:51.960Z,2.84
2019-01-27T10:37:47.700Z,2.93
2019-01-27T10:40:27.621Z,2.96
2019-01-27T10:43:34.582Z,2.98
2019-01-27T10:46:28.317Z,3.09
2019-01-27T10:49:15.759Z,3.24
2019-01-27T10:52:08.311Z,3.40
2019-01-27T10:54:56.182Z,3.36
2019-01-27T10:57:49.567Z,3.29
2019-01-27T11:00:38.020Z,3.48
2019-01-27T11:03:41.477Z,3.64
2019-01-27T11:06:33.480Z,3.65
2019-01-27T11:09:30.003Z,3.62
2019-01-27T11:12:27.533Z,3.49
2019-01-27T11:15:25.412Z,3.70
2019-01-27T11:18:18.317Z,3.80
2019-01-27T11:21:12.882Z,3.79
2019-01-27T11:24:01.530Z,3.69
2019-01-27T11:26:52.443Z,3.77
2019-01-27T11:30:08.471Z,3.69
2019-01-27T11:33:04.613Z,3.63
2019-01-27T11:36:08.546Z,3.53
2019-01-27T11:38:59.852Z,3.46
2019-01-27T11:41:57.549Z,3.44
2019-01-27T11:44:48.915Z,3.40
2019-01-27T11:48:00.403Z,3.42
2019-01-27T11:50:57.842Z,3.40
2019-01-27T11:53:44.037Z,3.46
2019-01-27T11:56:33.226Z,3.36
2019-01-27T11:59:05.814Z,3.34
2019-01-27T12:01:37.166Z,3.29
2019-01-27T12:04:16.406Z,3.31
2019-01-27T12:06:49.474Z,3.35
2019-01-27T12:09:20.291Z,3.34
2019-01-27T12:12:11.549Z,3.36
2019-01-27T12:14:49.499Z,3.33
2019-01-27T12:17:23.665Z,3.31
2019-01-27T12:20:44.308Z,3.27
2019-01-27T12:23:28.759Z,3.26
2019-01-27T12:26:05.016Z,3.24
2019-01-27T12:29:00.401Z,3.24
2019-01-27T12:31:41.101Z,3.34
2019-01-27T12:34:20.913Z,3.58
2019-01-27T12:36:54.602Z,3.72
2019-01-27T12:39:35.481Z,3.76
2019-01-27T12:42:10.600Z,3.79
2019-01-27T12:44:41.863Z,3.84
2019-01-27T12:47:13.861Z,3.82
2019-01-27T12:49:48.356Z,3.76
2019-01-27T12:52:24.088Z,3.75
2019-01-27T12:54:58.383Z,3.64
2019-01-27T12:57:29.683Z,3.66
2019-01-27T13:00:13.208Z,3.75
2019-01-27T13:02:49.771Z,3.81
2019-01-27T13:05:24.450Z,3.87
2019-01-27T13:07:55.763Z,3.83
2019-01-27T13:10:26.881Z,3.83
2019-01-27T13:13:13.715Z,3.81
2019-01-27T13:15:48.093Z,3.76
2019-01-27T13:18:23.955Z,3.73
2019-01-27T13:20:55.163Z,3.75
2019-01-27T13:23:25.905Z,3.76
2019-01-27T13:26:03.937Z,3.82
2019-01-27T13:28:36.358Z,3.87
2019-01-27T13:31:10.411Z,3.89
2019-01-27T13:33:42.794Z,3.87
2019-01-27T13:36:16.720Z,3.92
2019-01-27T13:38:51.250Z,3.95
2019-01-27T13:41:23.796Z,3.89
2019-01-27T13:43:54.742Z,3.70
2019-01-27T13:46:29.875Z,3.55
2019-01-27T13:49:13.315Z,3.44
2019-01-27T13:51:49.975Z,3.38
2019-01-27T13:54:25.786Z,3.36
2019-01-27T13:57:02.038Z,3.34
2019-01-27T13:59:41.975Z,3.35
2019-01-27T14:02:21.757Z,3.38
2019-01-27T14:04:55.952Z,3.46
2019-01-27T14:07:30.555Z,3.50
2019-01-27T14:10:03.486Z,3.49
2019-01-27T14:12:56.091Z,3.53
2019-01-27T14:15:29.520Z,3.50
2019-01-27T14:18:04.708Z,3.47
2019-01-27T14:20:43.157Z,3.39
2019-01-27T14:23:18.878Z,3.34
2019-01-27T14:25:49.716Z,3.29
2019-01-27T14:28:23.732Z,3.26
2019-01-27T14:31:01.231Z,3.24
2019-01-27T14:33:50.729Z,3.26
2019-01-27T14:36:13.803Z,3.25
2019-01-27T14:38:46.510Z,3.18
2019-01-27T14:41:22.137Z,3.15
2019-01-27T14:43:53.377Z,3.14
2019-01-27T14:46:25.230Z,3.16
2019-01-27T14:48:58.009Z,3.06
2019-01-27T14:51:29.306Z,3.11
2019-01-27T14:54:07.335Z,3.11
2019-01-27T14:56:38.210Z,3.07
2019-01-27T14:59:15.437Z,3.02
2019-01-27T15:01:46.602Z,3.02
2019-01-27T15:04:20.345Z,3.02
2019-01-27T15:06:54.824Z,3.02
2019-01-27T15:09:35.380Z,2.90
2019-01-27T15:12:07.483Z,2.84
2019-01-27T15:14:40.933Z,2.78
2019-01-27T15:17:14.440Z,2.69
2019-01-27T15:19:45.742Z,2.63
2019-01-27T15:22:16.885Z,2.55
2019-01-27T15:24:47.794Z,2.49
2019-01-27T15:27:20.822Z,2.46
2019-01-27T15:29:52.853Z,2.43
2019-01-27T15:32:25.741Z,2.38
2019-01-27T15:35:03.291Z,2.34
2019-01-27T15:37:36.491Z,2.33
2019-01-27T15:40:14.752Z,2.27
2019-01-27T15:42:49.160Z,2.24
2019-01-27T15:45:25.286Z,2.23
2019-01-27T15:48:01.169Z,2.34
2019-01-27T15:50:33.653Z,2.35
2019-01-27T15:53:12.358Z,2.29
2019-01-27T15:55:43.901Z,2.39
2019-01-27T15:58:18.394Z,2.39
2019-01-27T16:00:54.567Z,2.34
2019-01-27T16:03:37.595Z,2.30
2019-01-27T16:06:10.236Z,2.32
2019-01-27T16:08:43.458Z,2.41
2019-01-27T16:11:35.994Z,2.52
2019-01-27T16:14:07.919Z,2.43
2019-01-27T16:16:39.281Z,2.36
2019-01-27T16:19:15.242Z,2.39
2019-01-27T16:21:46.656Z,2.39
2019-01-27T16:24:31.605Z,2.40
2019-01-27T16:27:03.114Z,2.43
2019-01-27T16:29:56.413Z,2.48
2019-01-27T16:32:34.159Z,2.46
2019-01-27T16:35:13.585Z,2.48
2019-01-27T16:37:45.548Z,2.47
2019-01-27T16:40:18.920Z,2.41
2019-01-27T16:42:53.581Z,2.44
2019-01-27T16:45:28.117Z,2.47
2019-01-27T16:48:02.101Z,2.54
2019-01-27T16:50:33.794Z,2.51
2019-01-27T16:53:08.623Z,2.44
2019-01-27T16:55:48.223Z,2.48
2019-01-27T16:58:36.544Z,2.51
2019-01-27T17:01:10.621Z,2.48
2019-01-27T17:03:41.794Z,2.59
2019-01-27T17:06:22.675Z,2.60
2019-01-27T17:08:53.897Z,2.57
2019-01-27T17:11:27.046Z,2.55
2019-01-27T17:13:57.970Z,2.55
2019-01-27T17:16:30.664Z,2.52
2019-01-27T17:19:03.930Z,2.50
2019-01-27T17:21:37.719Z,2.50
2019-01-27T17:24:21.242Z,2.50
2019-01-27T17:26:55.767Z,2.54
2019-01-27T17:29:48.774Z,2.60
2019-01-27T17:32:22.510Z,2.56
2019-01-27T17:34:58.112Z,2.55
2019-01-27T17:37:38.307Z,2.55
2019-01-27T17:40:14.558Z,2.54
2019-01-27T17:42:46.124Z,2.64
2019-01-27T17:45:20.596Z,2.64
2019-01-27T17:47:54.734Z,2.61
2019-01-27T17:50:27.181Z,2.52
2019-01-27T17:52:58.453Z,2.44
2019-01-27T17:55:40.220Z,2.43
2019-01-27T17:58:33.583Z,2.47
2019-01-27T18:01:27.628Z,2.48
2019-01-27T18:04:19.594Z,2.45
2019-01-27T18:07:15.009Z,2.55
2019-01-27T18:10:01.318Z,2.48
2019-01-27T18:12:42.466Z,2.47
2019-01-27T18:15:15.084Z,2.54
2019-01-27T18:17:46.053Z,2.52
2019-01-27T18:20:20.459Z,2.48
2019-01-27T18:23:03.442Z,2.58
2019-01-27T18:25:43.477Z,2.57
2019-01-27T18:28:20.029Z,2.58
2019-01-27T18:30:59.837Z,2.58
2019-01-27T18:33:51.304Z,2.61
2019-01-27T18:36:22.270Z,2.55
2019-01-27T18:38:54.886Z,2.52
2019-01-27T18:41:33.758Z,2.49
2019-01-27T18:44:09.326Z,2.48
2019-01-27T18:46:45.051Z,2.52
2019-01-27T18:49:47.487Z,2.52
2019-01-27T18:52:31.174Z,2.50
2019-01-27T18:55:33.134Z,2.50
2019-01-27T18:58:25.742Z,2.47
2019-01-27T19:01:12.623Z,2.44
2019-01-27T19:03:53.899Z,2.37
2019-01-27T19:07:14.945Z,2.50
2019-01-27T19:10:17.287Z,2.50
2019-01-27T19:13:07.271Z,2.47
2019-01-27T19:16:06.785Z,2.46
2019-01-27T19:19:21.586Z,2.49
2019-01-27T19:22:18.539Z,2.50
2019-01-27T19:25:06.076Z,2.53
2019-01-27T19:27:54.518Z,2.51
2019-01-27T19:30:47.194Z,2.54
2019-01-27T19:33:42.412Z,2.60
2019-01-27T19:36:34.554Z,2.58
2019-01-27T19:39:51.630Z,2.56
2019-01-27T19:42:44.160Z,2.56
2019-01-27T19:45:43.172Z,2.57
2019-01-27T19:48:42.494Z,2.61
2019-01-27T19:51:38.658Z,2.55
2019-01-27T19:54:32.138Z,2.61
2019-01-27T19:57:26.648Z,2.58
2019-01-27T20:00:18.522Z,2.57
2019-01-27T20:03:15.314Z,2.58
2019-01-27T20:06:07.814Z,2.56
2019-01-27T20:09:07.428Z,2.61
2019-01-27T20:12:02.391Z,2.53
2019-01-27T20:14:52.202Z,2.55
2019-01-27T20:17:53.760Z,2.59
2019-01-27T20:20:53.074Z,2.58
2019-01-27T20:23:55.737Z,2.53
2019-01-27T20:26:50.788Z,2.47
2019-01-27T20:29:50.803Z,2.46
2019-01-27T20:32:42.799Z,2.46
2019-01-27T20:35:31.615Z,2.48
2019-01-27T20:38:43.688Z,2.47
2019-01-27T20:41:25.099Z,2.46
2019-01-27T20:44:24.773Z,2.40
2019-01-27T20:47:26.626Z,2.38
2019-01-27T20:50:22.587Z,2.43
2019-01-27T20:53:04.370Z,2.51
2019-01-27T20:55:55.005Z,2.49
2019-01-27T20:58:37.415Z,2.45
2019-01-27T21:01:25.326Z,2.38
2019-01-27T21:04:20.901Z,2.35
2019-01-27T21:07:03.695Z,2.36
2019-01-27T21:09:57.506Z,2.37
2019-01-27T21:13:05.786Z,2.41
2019-01-27T21:16:00.055Z,2.49
2019-01-27T21:18:53.294Z,2.47
2019-01-27T21:21:25.683Z,2.49
2019-01-27T21:24:04.471Z,2.45
2019-01-27T21:26:35.407Z,2.42
2019-01-27T21:29:10.016Z,2.47
2019-01-27T21:31:43.796Z,2.41
2019-01-27T21:34:14.667Z,2.39
2019-01-27T21:36:53.820Z,2.40
2019-01-27T21:39:28.079Z,2.35
2019-01-27T21:41:58.941Z,2.39
2019-01-27T21:44:32.455Z,2.42
2019-01-27T21:47:04.912Z,2.44
2019-01-27T21:49:41.423Z,2.48
2019-01-27T21:52:18.172Z,2.46
2019-01-27T21:54:49.226Z,2.43
2019-01-27T21:57:26.402Z,2.44
2019-01-27T21:59:58.965Z,2.46
2019-01-27T22:02:31.337Z,2.50
2019-01-27T22:05:08.378Z,2.49
2019-01-27T22:10:44.386Z,2.51
2019-01-27T22:13:15.549Z,2.51
2019-01-27T22:15:46.793Z,2.49
2019-01-27T22:18:20.582Z,2.51
2019-01-27T22:20:57.455Z,2.49
2019-01-27T22:23:30.120Z,2.47
2019-01-27T22:26:06.584Z,2.40
2019-01-27T22:28:37.540Z,2.34
2019-01-27T22:31:08.697Z,2.32
2019-01-27T22:33:39.523Z,2.35
2019-01-27T22:36:14.716Z,2.34
2019-01-27T22:38:46.856Z,2.35
2019-01-27T22:41:23.548Z,2.34
2019-01-27T22:43:54.353Z,2.33
2019-01-27T22:46:29.159Z,2.37
2019-01-27T22:48:59.931Z,2.37
2019-01-27T22:51:36.534Z,2.34
2019-01-27T22:54:07.530Z,2.33
2019-01-27T22:56:38.525Z,2.33
2019-01-27T22:59:09.650Z,2.39
2019-01-27T23:01:43.398Z,2.33
2019-01-27T23:04:18.427Z,2.33
2019-01-27T23:06:49.821Z,2.32
2019-01-27T23:09:22.136Z,2.35
2019-01-27T23:11:55.029Z,2.33
2019-01-27T23:14:29.209Z,2.31
2019-01-27T23:17:00.055Z,2.37
2019-01-27T23:19:31.427Z,2.32
2019-01-27T23:22:02.361Z,2.27
2019-01-27T23:24:33.198Z,2.28
2019-01-27T23:27:04.657Z,2.34
2019-01-27T23:29:36.534Z,2.30
2019-01-27T23:32:07.372Z,2.32
2019-01-27T23:34:38.423Z,2.33
2019-01-27T23:37:09.450Z,2.34
2019-01-27T23:39:40.248Z,2.37
2019-01-27T23:42:11.140Z,2.34
2019-01-27T23:44:42.226Z,2.37
2019-01-27T23:47:13.548Z,2.29
2019-01-27T23:49:44.328Z,2.30
2019-01-27T23:52:15.381Z,2.35
2019-01-27T23:54:49.619Z,2.36
2019-01-27T23:57:20.427Z,2.35
2019-01-27T23:59:51.474Z,2.37
